PWSweather.com
Personal Weather Stations
Station Observations

YeovilGB

Lat: 50.949, Lon: -2.627

Elevation: 70

Station Type: Vantage Pro

http://www.yeovil-weather.me.uk/

High Low Average
Temperature 48.4°F9.1°C 38.0°F3.3°C 43.6°F6.4°C
Dew Point 46.6°F8.1°C 36.0°F2.2°C 41.8°F5.4°C
Winds 9.2 mph 14.8 kmh Calm Calm 4.0 mph SSE6.4 kmh SSE
Wind Gusts 15.0 mph24.1 kmh -- 8.0 mph12.9 kmh
Humidity 95% 91% 93%
Pressure 30.23 in1023.7 mb 29.96 in1014.6 mb -
Precipitation 0.24 in6.1 mm - -
Hour Temp Dew Point Humidity Winds Wind Gusts Pressure Precip Precip Rate Daily Precip Total
12:00 AM 45.8°F7.7°C 43.9°F6.6°C 93% 1.2 mph SW1.9 kmh SW 1.2 mph1.9 kmh 30.23 in1023.7 mb - 0.00 in0.0 mm 0.00 in0.0 mm
12:10 AM 45.8°F7.7°C 43.9°F6.6°C 93% Calm Calm 4.6 mph7.4 kmh 30.23 in1023.7 mb - 0.00 in0.0 mm 0.00 in0.0 mm
12:20 AM 45.8°F7.7°C 44.2°F6.8°C 94% 2.3 mph SW3.7 kmh SW 6.9 mph11.1 kmh 30.22 in1023.4 mb - 0.00 in0.0 mm 0.00 in0.0 mm
12:30 AM 45.7°F7.6°C 43.8°F6.6°C 93% 2.3 mph SW3.7 kmh SW 5.8 mph9.3 kmh 30.21 in1023.0 mb - 0.00 in0.0 mm 0.00 in0.0 mm
12:40 AM 45.8°F7.7°C 44.2°F6.8°C 94% 2.3 mph SW3.7 kmh SW 5.8 mph9.3 kmh 30.21 in1023.0 mb - 0.00 in0.0 mm 0.00 in0.0 mm
12:50 AM 45.9°F7.7°C 44.3°F6.8°C 94% 3.5 mph SW5.6 kmh SW 5.8 mph9.3 kmh 30.20 in1022.7 mb - 0.00 in0.0 mm 0.00 in0.0 mm
01:00 AM 45.9°F7.7°C 44.3°F6.8°C 94% 2.3 mph SSW3.7 kmh SSW 4.6 mph7.4 kmh 30.19 in1022.4 mb - 0.00 in0.0 mm 0.00 in0.0 mm
01:10 AM 46.0°F7.8°C 44.4°F6.9°C 94% 2.3 mph SW3.7 kmh SW 4.6 mph7.4 kmh 30.19 in1022.4 mb - 0.00 in0.0 mm 0.00 in0.0 mm
01:20 AM 46.0°F7.8°C 44.4°F6.9°C 94% 1.2 mph SSW1.9 kmh SSW 3.5 mph5.6 kmh 30.18 in1022.0 mb - 0.00 in0.0 mm 0.00 in0.0 mm
01:30 AM 46.1°F7.8°C 44.5°F6.9°C 94% 2.3 mph SSW3.7 kmh SSW 6.9 mph11.1 kmh 30.18 in1022.0 mb - 0.00 in0.0 mm 0.00 in0.0 mm
01:40 AM 46.1°F7.8°C 44.5°F6.9°C 94% Calm Calm 1.2 mph1.9 kmh 30.17 in1021.7 mb - 0.00 in0.0 mm 0.00 in0.0 mm
01:50 AM 46.1°F7.8°C 44.4°F6.9°C 94% 4.6 mph SW7.4 kmh SW 6.9 mph11.1 kmh 30.16 in1021.3 mb - 0.00 in0.0 mm 0.00 in0.0 mm
02:00 AM 46.1°F7.8°C 44.5°F6.9°C 94% Calm Calm 4.6 mph7.4 kmh 30.16 in1021.3 mb - 0.00 in0.0 mm 0.00 in0.0 mm
02:10 AM 46.0°F7.8°C 44.1°F6.7°C 93% 3.5 mph SSW5.6 kmh SSW 5.8 mph9.3 kmh 30.15 in1021.0 mb - 0.00 in0.0 mm 0.00 in0.0 mm
02:20 AM 46.1°F7.8°C 44.2°F6.8°C 93% 3.5 mph SSW5.6 kmh SSW 6.9 mph11.1 kmh 30.15 in1021.0 mb - 0.00 in0.0 mm 0.00 in0.0 mm
02:30 AM 46.1°F7.8°C 44.2°F6.8°C 93% Calm Calm 2.3 mph3.7 kmh 30.14 in1020.7 mb - 0.00 in0.0 mm 0.00 in0.0 mm
02:40 AM 46.1°F7.8°C 43.9°F6.6°C 92% 4.6 mph S7.4 kmh S 9.2 mph14.8 kmh 30.13 in1020.3 mb - 0.00 in0.0 mm 0.00 in0.0 mm
02:50 AM 46.2°F7.9°C 44.0°F6.7°C 92% 3.5 mph SSW5.6 kmh SSW 6.9 mph11.1 kmh 30.11 in1019.6 mb - 0.00 in0.0 mm 0.00 in0.0 mm
03:00 AM 46.3°F7.9°C 43.8°F6.6°C 91% 1.2 mph SW1.9 kmh SW 4.6 mph7.4 kmh 30.11 in1019.6 mb - 0.00 in0.0 mm 0.00 in0.0 mm
03:10 AM 46.4°F8.0°C 44.2°F6.8°C 92% 3.5 mph SSW5.6 kmh SSW 9.2 mph14.8 kmh 30.11 in1019.6 mb - 0.00 in0.0 mm 0.00 in0.0 mm
03:20 AM 46.6°F8.1°C 44.4°F6.9°C 92% 4.6 mph SSW7.4 kmh SSW 5.8 mph9.3 kmh 30.10 in1019.3 mb - 0.00 in0.0 mm 0.00 in0.0 mm
03:30 AM 46.8°F8.2°C 44.9°F7.2°C 93% 2.3 mph SW3.7 kmh SW 5.8 mph9.3 kmh 30.10 in1019.3 mb - 0.00 in0.0 mm 0.00 in0.0 mm
03:40 AM 46.8°F8.2°C 44.9°F7.2°C 93% 3.5 mph SW5.6 kmh SW 8.1 mph13.0 kmh 30.09 in1019.0 mb - 0.00 in0.0 mm 0.00 in0.0 mm
03:50 AM 46.9°F8.3°C 45.0°F7.2°C 93% 9.2 mph SSW14.8 kmh SSW 12.7 mph20.4 kmh 30.09 in1019.0 mb - 0.00 in0.0 mm 0.00 in0.0 mm
04:00 AM 47.1°F8.4°C 45.2°F7.3°C 93% 5.8 mph SW9.3 kmh SW 6.9 mph11.1 kmh 30.09 in1019.0 mb - 0.00 in0.0 mm 0.00 in0.0 mm
04:10 AM 47.3°F8.5°C 45.4°F7.4°C 93% 4.6 mph SW7.4 kmh SW 9.2 mph14.8 kmh 30.08 in1018.6 mb - 0.00 in0.0 mm 0.00 in0.0 mm
04:20 AM 47.3°F8.5°C 45.4°F7.4°C 93% 6.9 mph SSW11.1 kmh SSW 8.1 mph13.0 kmh 30.07 in1018.3 mb - 0.00 in0.0 mm 0.00 in0.0 mm
04:30 AM 47.3°F8.5°C 45.7°F7.6°C 94% 5.8 mph SW9.3 kmh SW 8.1 mph13.0 kmh 30.07 in1018.3 mb - 0.00 in0.0 mm 0.00 in0.0 mm
04:40 AM 47.2°F8.4°C 45.6°F7.6°C 94% 4.6 mph SSW7.4 kmh SSW 8.1 mph13.0 kmh 30.06 in1017.9 mb - 0.00 in0.0 mm 0.00 in0.0 mm
04:50 AM 47.1°F8.4°C 45.5°F7.5°C 94% 3.5 mph SW5.6 kmh SW 4.6 mph7.4 kmh 30.05 in1017.6 mb - 0.00 in0.0 mm 0.00 in0.0 mm
05:00 AM 47.1°F8.4°C 45.5°F7.5°C 94% 1.2 mph SSW1.9 kmh SSW 4.6 mph7.4 kmh 30.05 in1017.6 mb - 0.00 in0.0 mm 0.00 in0.0 mm
05:10 AM 47.0°F8.3°C 45.4°F7.4°C 94% 1.2 mph SSW1.9 kmh SSW 3.5 mph5.6 kmh 30.05 in1017.6 mb - 0.00 in0.0 mm 0.00 in0.0 mm
05:20 AM 47.0°F8.3°C 45.3°F7.4°C 94% 3.5 mph SSW5.6 kmh SSW 5.8 mph9.3 kmh 30.04 in1017.3 mb - 0.00 in0.0 mm 0.00 in0.0 mm
05:30 AM 46.9°F8.3°C 45.3°F7.4°C 94% 1.2 mph SSW1.9 kmh SSW 3.5 mph5.6 kmh 30.04 in1017.3 mb - 0.00 in0.0 mm 0.00 in0.0 mm
05:40 AM 46.9°F8.3°C 45.2°F7.3°C 94% Calm Calm 2.3 mph3.7 kmh 30.04 in1017.3 mb - 0.00 in0.0 mm 0.00 in0.0 mm
05:50 AM 46.7°F8.2°C 45.1°F7.3°C 94% Calm Calm 1.2 mph1.9 kmh 30.03 in1016.9 mb - 0.00 in0.0 mm 0.00 in0.0 mm
06:00 AM 46.7°F8.2°C 45.1°F7.3°C 94% Calm Calm -- 30.03 in1016.9 mb - 0.00 in0.0 mm 0.00 in0.0 mm
06:10 AM 46.7°F8.2°C 45.1°F7.3°C 94% Calm Calm -- 30.02 in1016.6 mb - 0.00 in0.0 mm 0.00 in0.0 mm
06:20 AM 46.6°F8.1°C 45.0°F7.2°C 94% 1.2 mph S1.9 kmh S 4.6 mph7.4 kmh 30.02 in1016.6 mb - 0.00 in0.0 mm 0.00 in0.0 mm
06:30 AM 46.7°F8.2°C 45.1°F7.3°C 94% 1.2 mph SSW1.9 kmh SSW 5.8 mph9.3 kmh 30.02 in1016.6 mb - 0.00 in0.0 mm 0.00 in0.0 mm
06:40 AM 46.7°F8.2°C 44.8°F7.1°C 93% 3.5 mph SSW5.6 kmh SSW 9.2 mph14.8 kmh 30.01 in1016.3 mb - 0.00 in0.0 mm 0.00 in0.0 mm
06:50 AM 46.8°F8.2°C 44.9°F7.2°C 93% 3.5 mph S5.6 kmh S 5.8 mph9.3 kmh 30.01 in1016.3 mb - 0.00 in0.0 mm 0.00 in0.0 mm
07:00 AM 46.9°F8.3°C 44.7°F7.1°C 92% 1.2 mph SW1.9 kmh SW 2.3 mph3.7 kmh 30.01 in1016.3 mb - 0.00 in0.0 mm 0.00 in0.0 mm
07:10 AM 46.9°F8.3°C 44.7°F7.1°C 92% 3.5 mph SSW5.6 kmh SSW 6.9 mph11.1 kmh 30.00 in1015.9 mb - 0.00 in0.0 mm 0.00 in0.0 mm
07:20 AM 46.8°F8.2°C 44.6°F7.0°C 92% 4.6 mph S7.4 kmh S 11.5 mph18.5 kmh 30.00 in1015.9 mb - 0.00 in0.0 mm 0.00 in0.0 mm
07:30 AM 46.8°F8.2°C 44.6°F7.0°C 92% 2.3 mph S3.7 kmh S 5.8 mph9.3 kmh 30.00 in1015.9 mb - 0.00 in0.0 mm 0.00 in0.0 mm
07:40 AM 46.7°F8.2°C 44.5°F6.9°C 92% 3.5 mph SSW5.6 kmh SSW 4.6 mph7.4 kmh 30.00 in1015.9 mb - 0.00 in0.0 mm 0.00 in0.0 mm
07:50 AM 46.7°F8.2°C 44.8°F7.1°C 93% 3.5 mph SSW5.6 kmh SSW 6.9 mph11.1 kmh 30.00 in1015.9 mb - 0.00 in0.0 mm 0.00 in0.0 mm
08:00 AM 46.8°F8.2°C 44.8°F7.1°C 93% 2.3 mph S3.7 kmh S 3.5 mph5.6 kmh 29.99 in1015.6 mb - 0.00 in0.0 mm 0.00 in0.0 mm
08:10 AM 46.8°F8.2°C 44.9°F7.2°C 93% Calm Calm 3.5 mph5.6 kmh 29.99 in1015.6 mb - 0.00 in0.0 mm 0.00 in0.0 mm
08:20 AM 46.8°F8.2°C 44.9°F7.2°C 93% Calm Calm 4.6 mph7.4 kmh 29.99 in1015.6 mb - 0.00 in0.0 mm 0.00 in0.0 mm
08:30 AM 46.8°F8.2°C 44.9°F7.2°C 93% Calm Calm 3.5 mph5.6 kmh 29.99 in1015.6 mb - 0.00 in0.0 mm 0.00 in0.0 mm
08:40 AM 47.1°F8.4°C 45.1°F7.3°C 93% 1.2 mph S1.9 kmh S 4.6 mph7.4 kmh 29.99 in1015.6 mb - 0.00 in0.0 mm 0.00 in0.0 mm
08:50 AM 47.2°F8.4°C 45.0°F7.2°C 92% 4.6 mph SSW7.4 kmh SSW 10.4 mph16.7 kmh 29.99 in1015.6 mb - 0.00 in0.0 mm 0.00 in0.0 mm
09:00 AM 47.2°F8.4°C 45.0°F7.2°C 92% 1.2 mph SW1.9 kmh SW 10.4 mph16.7 kmh 29.98 in1015.2 mb - 0.00 in0.0 mm 0.00 in0.0 mm
09:10 AM 47.3°F8.5°C 44.8°F7.1°C 91% 3.5 mph SW5.6 kmh SW 4.6 mph7.4 kmh 29.99 in1015.6 mb - 0.00 in0.0 mm 0.00 in0.0 mm
09:20 AM 47.5°F8.6°C 45.3°F7.4°C 92% 2.3 mph SW3.7 kmh SW 4.6 mph7.4 kmh 29.98 in1015.2 mb - 0.00 in0.0 mm 0.00 in0.0 mm
09:30 AM 47.6°F8.7°C 45.4°F7.4°C 92% 1.2 mph SSW1.9 kmh SSW 3.5 mph5.6 kmh 29.98 in1015.2 mb - 0.01 in0.3 mm 0.01 in0.3 mm
09:40 AM 47.6°F8.7°C 45.7°F7.6°C 93% 1.2 mph SSW1.9 kmh SSW 2.3 mph3.7 kmh 29.98 in1015.2 mb - 0.00 in0.0 mm 0.01 in0.3 mm
09:50 AM 47.6°F8.7°C 45.7°F7.6°C 93% 1.2 mph SSW1.9 kmh SSW 4.6 mph7.4 kmh 29.98 in1015.2 mb - 0.00 in0.0 mm 0.01 in0.3 mm
10:00 AM 47.7°F8.7°C 45.8°F7.7°C 93% 2.3 mph SW3.7 kmh SW 2.3 mph3.7 kmh 29.98 in1015.2 mb - 0.00 in0.0 mm 0.01 in0.3 mm
10:10 AM 47.8°F8.8°C 45.9°F7.7°C 93% 3.5 mph S5.6 kmh S 8.1 mph13.0 kmh 29.98 in1015.2 mb - 0.00 in0.0 mm 0.01 in0.3 mm
10:20 AM 47.9°F8.8°C 46.0°F7.8°C 93% 1.2 mph SW1.9 kmh SW 3.5 mph5.6 kmh 29.98 in1015.2 mb - 0.00 in0.0 mm 0.01 in0.3 mm
10:30 AM 48.1°F8.9°C 46.2°F7.9°C 93% 1.2 mph SW1.9 kmh SW 8.1 mph13.0 kmh 29.98 in1015.2 mb - 0.00 in0.0 mm 0.01 in0.3 mm
10:40 AM 48.2°F9.0°C 46.3°F7.9°C 93% 3.5 mph SSW5.6 kmh SSW 10.4 mph16.7 kmh 29.98 in1015.2 mb - 0.00 in0.0 mm 0.01 in0.3 mm
10:50 AM 48.3°F9.1°C 46.4°F8.0°C 93% 6.9 mph SW11.1 kmh SW 11.5 mph18.5 kmh 29.98 in1015.2 mb - 0.00 in0.0 mm 0.01 in0.3 mm
11:00 AM 48.4°F9.1°C 46.5°F8.1°C 93% 5.8 mph SSW9.3 kmh SSW 8.1 mph13.0 kmh 29.98 in1015.2 mb - 0.00 in0.0 mm 0.01 in0.3 mm
11:10 AM 48.4°F9.1°C 46.5°F8.1°C 93% 4.6 mph SSW7.4 kmh SSW 8.1 mph13.0 kmh 29.97 in1014.9 mb - 0.00 in0.0 mm 0.01 in0.3 mm
11:20 AM 48.4°F9.1°C 46.5°F8.1°C 93% 5.8 mph SW9.3 kmh SW 11.5 mph18.5 kmh 29.97 in1014.9 mb - 0.00 in0.0 mm 0.01 in0.3 mm
11:30 AM 48.4°F9.1°C 46.5°F8.1°C 93% 5.8 mph SW9.3 kmh SW 11.5 mph18.5 kmh 29.97 in1014.9 mb - 0.00 in0.0 mm 0.01 in0.3 mm
11:40 AM 48.4°F9.1°C 46.5°F8.1°C 93% 4.6 mph SW7.4 kmh SW 9.2 mph14.8 kmh 29.97 in1014.9 mb - 0.00 in0.0 mm 0.01 in0.3 mm
11:50 AM 48.4°F9.1°C 46.5°F8.1°C 93% 4.6 mph SW7.4 kmh SW 9.2 mph14.8 kmh 29.97 in1014.9 mb - 0.00 in0.0 mm 0.01 in0.3 mm
12:00 PM 48.3°F9.1°C 46.4°F8.0°C 93% 3.5 mph SSW5.6 kmh SSW 5.8 mph9.3 kmh 29.97 in1014.9 mb - 0.00 in0.0 mm 0.01 in0.3 mm
12:10 PM 48.3°F9.1°C 46.4°F8.0°C 93% 4.6 mph SW7.4 kmh SW 8.1 mph13.0 kmh 29.97 in1014.9 mb - 0.00 in0.0 mm 0.01 in0.3 mm
12:20 PM 48.2°F9.0°C 46.3°F7.9°C 93% 4.6 mph SSW7.4 kmh SSW 5.8 mph9.3 kmh 29.96 in1014.6 mb - 0.01 in0.3 mm 0.02 in0.5 mm
12:30 PM 48.2°F9.0°C 46.6°F8.1°C 94% 3.5 mph SW5.6 kmh SW 5.8 mph9.3 kmh 29.96 in1014.6 mb - 0.01 in0.3 mm 0.02 in0.5 mm
12:40 PM 47.5°F8.6°C 45.6°F7.6°C 93% 1.2 mph NW1.9 kmh NW 2.3 mph3.7 kmh 29.97 in1014.9 mb - 0.02 in0.5 mm 0.04 in1.0 mm
12:50 PM 46.7°F8.2°C 44.8°F7.1°C 93% 5.8 mph N9.3 kmh N 8.1 mph13.0 kmh 29.98 in1015.2 mb - 0.01 in0.3 mm 0.05 in1.3 mm
01:00 PM 45.4°F7.4°C 43.2°F6.2°C 92% 5.8 mph NNW9.3 kmh NNW 11.5 mph18.5 kmh 29.97 in1014.9 mb - 0.01 in0.3 mm 0.06 in1.5 mm
01:10 PM 44.3°F6.8°C 42.4°F5.8°C 93% 5.8 mph N9.3 kmh N 10.4 mph16.7 kmh 29.97 in1014.9 mb - 0.00 in0.0 mm 0.06 in1.5 mm
01:20 PM 43.9°F6.6°C 42.3°F5.7°C 94% 4.6 mph N7.4 kmh N 5.8 mph9.3 kmh 29.98 in1015.2 mb - 0.00 in0.0 mm 0.06 in1.5 mm
01:30 PM 43.7°F6.5°C 42.1°F5.6°C 94% 4.6 mph NNW7.4 kmh NNW 8.1 mph13.0 kmh 29.98 in1015.2 mb - 0.01 in0.3 mm 0.06 in1.5 mm
01:40 PM 43.5°F6.4°C 41.9°F5.5°C 94% 4.6 mph N7.4 kmh N 10.4 mph16.7 kmh 29.98 in1015.2 mb - 0.01 in0.3 mm 0.07 in1.8 mm
01:50 PM 43.3°F6.3°C 41.7°F5.4°C 94% 4.6 mph N7.4 kmh N 8.1 mph13.0 kmh 29.98 in1015.2 mb - 0.00 in0.0 mm 0.07 in1.8 mm
02:00 PM 43.1°F6.2°C 41.8°F5.4°C 95% 5.8 mph NNW9.3 kmh NNW 9.2 mph14.8 kmh 29.99 in1015.6 mb - 0.00 in0.0 mm 0.07 in1.8 mm
02:10 PM 42.4°F5.8°C 40.8°F4.9°C 94% 4.6 mph N7.4 kmh N 11.5 mph18.5 kmh 29.99 in1015.6 mb - 0.01 in0.3 mm 0.08 in2.0 mm
02:20 PM 42.0°F5.6°C 40.4°F4.7°C 94% 4.6 mph N7.4 kmh N 9.2 mph14.8 kmh 29.99 in1015.6 mb - 0.01 in0.3 mm 0.09 in2.3 mm
02:30 PM 41.7°F5.4°C 40.1°F4.5°C 94% 3.5 mph N5.6 kmh N 10.4 mph16.7 kmh 30.00 in1015.9 mb - 0.01 in0.3 mm 0.09 in2.3 mm
02:40 PM 41.3°F5.2°C 39.8°F4.3°C 94% 1.2 mph N1.9 kmh N 2.3 mph3.7 kmh 30.00 in1015.9 mb - 0.01 in0.3 mm 0.10 in2.5 mm
02:50 PM 41.0°F5.0°C 39.4°F4.1°C 94% 8.1 mph N13.0 kmh N 11.5 mph18.5 kmh 30.01 in1016.3 mb - 0.01 in0.3 mm 0.11 in2.8 mm
03:00 PM 39.9°F4.4°C 38.0°F3.3°C 93% 5.8 mph N9.3 kmh N 12.7 mph20.4 kmh 30.01 in1016.3 mb - 0.01 in0.3 mm 0.12 in3.0 mm
03:10 PM 39.2°F4.0°C 37.4°F3.0°C 93% 5.8 mph NNE9.3 kmh NNE 13.8 mph22.2 kmh 30.02 in1016.6 mb - 0.01 in0.3 mm 0.13 in3.3 mm
03:20 PM 39.0°F3.9°C 37.1°F2.8°C 93% 5.8 mph N9.3 kmh N 10.4 mph16.7 kmh 30.02 in1016.6 mb - 0.01 in0.3 mm 0.13 in3.3 mm
03:30 PM 38.9°F3.8°C 37.0°F2.8°C 93% 5.8 mph N9.3 kmh N 10.4 mph16.7 kmh 30.02 in1016.6 mb - 0.00 in0.0 mm 0.13 in3.3 mm
03:40 PM 38.8°F3.8°C 36.9°F2.7°C 93% 5.8 mph N9.3 kmh N 10.4 mph16.7 kmh 30.03 in1016.9 mb - 0.01 in0.3 mm 0.14 in3.6 mm
03:50 PM 38.6°F3.7°C 36.8°F2.7°C 93% 4.6 mph N7.4 kmh N 11.5 mph18.5 kmh 30.03 in1016.9 mb - 0.00 in0.0 mm 0.14 in3.6 mm
04:00 PM 38.6°F3.7°C 36.8°F2.7°C 93% 5.8 mph N9.3 kmh N 10.4 mph16.7 kmh 30.04 in1017.3 mb - 0.01 in0.3 mm 0.15 in3.8 mm
04:10 PM 38.5°F3.6°C 36.6°F2.6°C 93% 8.1 mph N13.0 kmh N 13.8 mph22.2 kmh 30.04 in1017.3 mb - 0.00 in0.0 mm 0.15 in3.8 mm
04:20 PM 38.4°F3.6°C 36.8°F2.7°C 94% 8.1 mph NNW13.0 kmh NNW 15.0 mph24.1 kmh 30.05 in1017.6 mb - 0.00 in0.0 mm 0.15 in3.8 mm
04:30 PM 38.2°F3.4°C 36.4°F2.4°C 93% 5.8 mph N9.3 kmh N 10.4 mph16.7 kmh 30.05 in1017.6 mb - 0.02 in0.5 mm 0.17 in4.3 mm
04:40 PM 38.1°F3.4°C 36.3°F2.4°C 93% 5.8 mph N9.3 kmh N 8.1 mph13.0 kmh 30.06 in1017.9 mb - 0.00 in0.0 mm 0.17 in4.3 mm
04:50 PM 38.1°F3.4°C 36.2°F2.3°C 93% 5.8 mph N9.3 kmh N 11.5 mph18.5 kmh 30.06 in1017.9 mb - 0.02 in0.5 mm 0.18 in4.6 mm
05:00 PM 38.0°F3.3°C 36.2°F2.3°C 93% 5.8 mph N9.3 kmh N 9.2 mph14.8 kmh 30.07 in1018.3 mb - 0.00 in0.0 mm 0.18 in4.6 mm
05:10 PM 38.0°F3.3°C 36.2°F2.3°C 93% 4.6 mph N7.4 kmh N 8.1 mph13.0 kmh 30.07 in1018.3 mb - 0.00 in0.0 mm 0.18 in4.6 mm
05:20 PM 38.0°F3.3°C 36.2°F2.3°C 93% 5.8 mph N9.3 kmh N 11.5 mph18.5 kmh 30.07 in1018.3 mb - 0.01 in0.3 mm 0.19 in4.8 mm
05:30 PM 38.0°F3.3°C 36.4°F2.4°C 94% 4.6 mph N7.4 kmh N 9.2 mph14.8 kmh 30.07 in1018.3 mb - 0.01 in0.3 mm 0.20 in5.1 mm
05:40 PM 38.1°F3.4°C 36.5°F2.5°C 94% 5.8 mph N9.3 kmh N 11.5 mph18.5 kmh 30.08 in1018.6 mb - 0.00 in0.0 mm 0.20 in5.1 mm
05:50 PM 38.1°F3.4°C 36.5°F2.5°C 94% 5.8 mph N9.3 kmh N 8.1 mph13.0 kmh 30.08 in1018.6 mb - 0.00 in0.0 mm 0.20 in5.1 mm
06:00 PM 38.2°F3.4°C 36.6°F2.6°C 94% 3.5 mph N5.6 kmh N 10.4 mph16.7 kmh 30.09 in1019.0 mb - 0.01 in0.3 mm 0.21 in5.3 mm
06:10 PM 38.3°F3.5°C 36.7°F2.6°C 94% 6.9 mph NNE11.1 kmh NNE 10.4 mph16.7 kmh 30.09 in1019.0 mb - 0.00 in0.0 mm 0.21 in5.3 mm
06:20 PM 38.4°F3.6°C 36.8°F2.7°C 94% 3.5 mph N5.6 kmh N 11.5 mph18.5 kmh 30.10 in1019.3 mb - 0.01 in0.3 mm 0.21 in5.3 mm
06:30 PM 38.5°F3.6°C 36.9°F2.7°C 94% 5.8 mph NNE9.3 kmh NNE 9.2 mph14.8 kmh 30.10 in1019.3 mb - 0.00 in0.0 mm 0.21 in5.3 mm
06:40 PM 38.6°F3.7°C 37.0°F2.8°C 94% 5.8 mph N9.3 kmh N 10.4 mph16.7 kmh 30.11 in1019.6 mb - 0.00 in0.0 mm 0.21 in5.3 mm
06:50 PM 38.7°F3.7°C 37.1°F2.8°C 94% 6.9 mph N11.1 kmh N 9.2 mph14.8 kmh 30.11 in1019.6 mb - 0.00 in0.0 mm 0.21 in5.3 mm
07:00 PM 38.8°F3.8°C 37.2°F2.9°C 94% 5.8 mph N9.3 kmh N 12.7 mph20.4 kmh 30.11 in1019.6 mb - 0.00 in0.0 mm 0.21 in5.3 mm
07:10 PM 38.8°F3.8°C 37.2°F2.9°C 94% 4.6 mph NE7.4 kmh NE 11.5 mph18.5 kmh 30.12 in1020.0 mb - 0.00 in0.0 mm 0.21 in5.3 mm
07:20 PM 38.9°F3.8°C 37.3°F2.9°C 94% 6.9 mph N11.1 kmh N 11.5 mph18.5 kmh 30.13 in1020.3 mb - 0.01 in0.3 mm 0.22 in5.6 mm
07:30 PM 38.9°F3.8°C 37.3°F2.9°C 94% 4.6 mph N7.4 kmh N 8.1 mph13.0 kmh 30.13 in1020.3 mb - 0.00 in0.0 mm 0.22 in5.6 mm
07:40 PM 39.0°F3.9°C 37.4°F3.0°C 94% 6.9 mph N11.1 kmh N 12.7 mph20.4 kmh 30.13 in1020.3 mb - 0.01 in0.3 mm 0.23 in5.8 mm
07:50 PM 39.1°F3.9°C 37.5°F3.1°C 94% 8.1 mph N13.0 kmh N 11.5 mph18.5 kmh 30.14 in1020.7 mb - 0.00 in0.0 mm 0.23 in5.8 mm
08:00 PM 39.1°F3.9°C 37.5°F3.1°C 94% 6.9 mph N11.1 kmh N 11.5 mph18.5 kmh 30.14 in1020.7 mb - 0.00 in0.0 mm 0.23 in5.8 mm
08:10 PM 39.2°F4.0°C 37.6°F3.1°C 94% 6.9 mph N11.1 kmh N 10.4 mph16.7 kmh 30.14 in1020.7 mb - 0.00 in0.0 mm 0.23 in5.8 mm
08:20 PM 39.2°F4.0°C 37.7°F3.2°C 94% 6.9 mph N11.1 kmh N 11.5 mph18.5 kmh 30.14 in1020.7 mb - 0.01 in0.3 mm 0.24 in6.1 mm
08:30 PM 39.3°F4.1°C 37.7°F3.2°C 94% 4.6 mph N7.4 kmh N 10.4 mph16.7 kmh 30.15 in1021.0 mb - 0.00 in0.0 mm 0.24 in6.1 mm
08:40 PM 39.3°F4.1°C 37.7°F3.2°C 94% 6.9 mph N11.1 kmh N 11.5 mph18.5 kmh 30.15 in1021.0 mb - 0.00 in0.0 mm 0.24 in6.1 mm
08:50 PM 39.3°F4.1°C 37.8°F3.2°C 94% 4.6 mph N7.4 kmh N 11.5 mph18.5 kmh 30.16 in1021.3 mb - 0.00 in0.0 mm 0.24 in6.1 mm
09:00 PM 39.4°F4.1°C 37.8°F3.2°C 94% 4.6 mph N7.4 kmh N 8.1 mph13.0 kmh 30.17 in1021.7 mb - 0.00 in0.0 mm 0.24 in6.1 mm
09:20 PM 39.3°F4.1°C 37.7°F3.2°C 94% 6.9 mph N11.1 kmh N 11.5 mph18.5 kmh 30.18 in1022.0 mb - 0.00 in0.0 mm 0.24 in6.1 mm
09:30 PM 39.2°F4.0°C 37.3°F2.9°C 93% 9.2 mph N14.8 kmh N 12.7 mph20.4 kmh 30.18 in1022.0 mb - 0.01 in0.3 mm 0.24 in6.1 mm
09:40 PM 39.1°F3.9°C 37.2°F2.9°C 93% 8.1 mph N13.0 kmh N 12.7 mph20.4 kmh 30.18 in1022.0 mb - 0.00 in0.0 mm 0.24 in6.1 mm
09:50 PM 39.0°F3.9°C 37.1°F2.8°C 93% 5.8 mph N9.3 kmh N 9.2 mph14.8 kmh 30.18 in1022.0 mb - 0.00 in0.0 mm 0.24 in6.1 mm
10:00 PM 39.0°F3.9°C 37.1°F2.8°C 93% 5.8 mph N9.3 kmh N 9.2 mph14.8 kmh 30.18 in1022.0 mb - 0.00 in0.0 mm 0.24 in6.1 mm
10:10 PM 38.9°F3.8°C 37.1°F2.8°C 93% 6.9 mph N11.1 kmh N 11.5 mph18.5 kmh 30.19 in1022.4 mb - 0.00 in0.0 mm 0.24 in6.1 mm
10:20 PM 38.9°F3.8°C 36.8°F2.7°C 92% 5.8 mph NNE9.3 kmh NNE 11.5 mph18.5 kmh 30.19 in1022.4 mb - 0.00 in0.0 mm 0.24 in6.1 mm
10:30 PM 38.8°F3.8°C 36.7°F2.6°C 92% 6.9 mph NNE11.1 kmh NNE 10.4 mph16.7 kmh 30.20 in1022.7 mb - 0.00 in0.0 mm 0.24 in6.1 mm
10:40 PM 38.8°F3.8°C 36.7°F2.6°C 92% 5.8 mph N9.3 kmh N 8.1 mph13.0 kmh 30.20 in1022.7 mb - 0.00 in0.0 mm 0.24 in6.1 mm
10:50 PM 38.7°F3.7°C 36.6°F2.6°C 92% 5.8 mph N9.3 kmh N 10.4 mph16.7 kmh 30.21 in1023.0 mb - 0.00 in0.0 mm 0.24 in6.1 mm
11:00 PM 38.6°F3.7°C 36.5°F2.5°C 92% 5.8 mph N9.3 kmh N 10.4 mph16.7 kmh 30.21 in1023.0 mb - 0.00 in0.0 mm 0.24 in6.1 mm
11:10 PM 38.4°F3.6°C 36.3°F2.4°C 92% 5.8 mph N9.3 kmh N 13.8 mph22.2 kmh 30.21 in1023.0 mb - 0.00 in0.0 mm 0.24 in6.1 mm
11:20 PM 38.4°F3.6°C 36.3°F2.4°C 92% 4.6 mph N7.4 kmh N 10.4 mph16.7 kmh 30.22 in1023.4 mb - 0.00 in0.0 mm 0.24 in6.1 mm
11:30 PM 38.3°F3.5°C 36.2°F2.3°C 92% 5.8 mph N9.3 kmh N 11.5 mph18.5 kmh 30.22 in1023.4 mb - 0.00 in0.0 mm 0.24 in6.1 mm
11:40 PM 38.2°F3.4°C 36.1°F2.3°C 92% 4.6 mph N7.4 kmh N 10.4 mph16.7 kmh 30.22 in1023.4 mb - 0.00 in0.0 mm 0.24 in6.1 mm
11:50 PM 38.1°F3.4°C 36.0°F2.2°C 92% 2.3 mph NNE3.7 kmh NNE 8.1 mph13.0 kmh 30.23 in1023.7 mb - 0.00 in0.0 mm 0.24 in6.1 mm